Time;durP1;ratioP1;P1;durP2;ratioP2;P2;SDS_P1;SDS_P2;PMS_P1;PMS_P2;Temp;Humidity;BMP_temperature;BMP_pressure;BME280_temperature;BME280_humidity;BME280_pressure;Samples;Min_cycle;Max_cycle;Signal;HPM_P1;HPM_P2
2022/06/29 00:00:15;;;;;;;2.00;1.90;;;;;;;16.94;100.00;101049.94;5033306;28;20712;-76
2022/06/29 00:02:43;;;;;;;3.83;1.87;;;;;;;16.94;100.00;101044.69;5037383;28;20233;-76
2022/06/29 00:05:11;;;;;;;2.00;1.90;;;;;;;16.91;100.00;101040.41;5045674;28;20195;-76
2022/06/29 00:07:38;;;;;;;3.10;1.93;;;;;;;16.88;100.00;101039.72;5038420;28;20212;-76
2022/06/29 00:10:05;;;;;;;2.80;2.13;;;;;;;16.91;100.00;101024.63;5047466;28;20195;-75
2022/06/29 00:12:32;;;;;;;2.33;2.13;;;;;;;16.93;100.00;101025.41;5036227;28;20216;-76
2022/06/29 00:15:02;;;;;;;2.10;1.90;;;;;;;16.98;100.00;101025.19;5050796;28;20199;-75
2022/06/29 00:17:30;;;;;;;2.37;2.17;;;;;;;17.00;100.00;101026.81;5050414;28;20682;-76
2022/06/29 00:19:57;;;;;;;2.20;2.00;;;;;;;17.00;100.00;101012.81;5050400;28;20208;-76
2022/06/29 00:22:23;;;;;;;2.27;2.07;;;;;;;17.00;100.00;101013.66;5045046;28;20215;-76
2022/06/29 00:24:49;;;;;;;2.50;2.20;;;;;;;16.99;100.00;101018.97;5038467;28;20206;-76
2022/06/29 00:27:16;;;;;;;2.63;2.17;;;;;;;17.00;100.00;101016.28;5048315;28;20581;-76
2022/06/29 00:29:42;;;;;;;2.20;2.00;;;;;;;17.00;100.00;101008.38;5042595;28;20565;-76
2022/06/29 00:32:10;;;;;;;2.40;2.20;;;;;;;17.01;100.00;101003.97;5049071;28;20683;-76
2022/06/29 00:34:38;;;;;;;2.97;2.67;;;;;;;17.00;100.00;101002.25;5045689;28;20202;-76
2022/06/29 00:37:05;;;;;;;2.70;2.50;;;;;;;17.01;100.00;101003.97;5049748;28;20253;-76
2022/06/29 00:39:32;;;;;;;2.37;2.10;;;;;;;17.01;100.00;100996.94;5038502;28;20204;-76
2022/06/29 00:41:59;;;;;;;2.63;2.43;;;;;;;17.01;100.00;100996.09;5036583;28;20225;-76
2022/06/29 00:44:26;;;;;;;3.30;2.43;;;;;;;17.02;100.00;101003.03;5035351;28;20225;-76
2022/06/29 00:46:54;;;;;;;2.77;2.50;;;;;;;17.01;100.00;100998.72;5039666;28;20210;-76
2022/06/29 00:49:24;;;;;;;3.10;2.77;;;;;;;17.00;100.00;100999.63;5035977;28;20203;-76
2022/06/29 00:51:54;;;;;;;4.57;2.60;;;;;;;16.98;100.00;100986.53;5038974;28;20215;-76
2022/06/29 00:54:23;;;;;;;2.87;2.53;;;;;;;16.99;100.00;100982.09;5047285;28;20203;-76
2022/06/29 00:56:50;;;;;;;3.47;3.10;;;;;;;17.01;100.00;100978.50;5049371;28;20257;-76
2022/06/29 00:59:20;;;;;;;3.10;2.80;;;;;;;17.01;100.00;100969.75;5037616;28;20211;-76
2022/06/29 01:01:47;;;;;;;3.73;3.30;;;;;;;16.98;100.00;100960.19;5045080;28;20571;-76
2022/06/29 01:04:14;;;;;;;3.27;2.93;;;;;;;16.99;100.00;100974.19;5039550;28;20199;-76
2022/06/29 01:06:42;;;;;;;2.97;2.73;;;;;;;16.97;100.00;100974.31;5050361;28;20578;-76
2022/06/29 01:09:09;;;;;;;3.20;2.90;;;;;;;16.95;100.00;100970.88;5046311;28;20211;-76
2022/06/29 01:11:35;;;;;;;3.60;3.20;;;;;;;16.94;100.00;100977.06;5049467;28;20219;-76
2022/06/29 01:14:03;;;;;;;3.60;3.13;;;;;;;16.93;100.00;100972.72;5047911;28;20278;-76
2022/06/29 01:16:29;;;;;;;6.47;3.63;;;;;;;16.93;100.00;100974.50;5054726;28;20667;-74
2022/06/29 01:18:56;;;;;;;3.97;3.57;;;;;;;16.90;100.00;100977.28;5050879;28;20202;-74
2022/06/29 01:21:25;;;;;;;4.77;3.40;;;;;;;16.90;100.00;100983.38;5051749;28;20229;-74
2022/06/29 01:23:53;;;;;;;3.73;3.40;;;;;;;16.88;100.00;100997.56;5054069;28;20207;-74
2022/06/29 01:26:19;;;;;;;3.53;3.23;;;;;;;16.88;100.00;101003.69;5054511;28;20194;-74
2022/06/29 01:28:46;;;;;;;5.33;3.37;;;;;;;16.88;100.00;101005.47;5048262;28;20199;-74
2022/06/29 01:31:16;;;;;;;4.03;3.63;;;;;;;16.87;100.00;101012.53;5042840;28;20203;-74
2022/06/29 01:33:43;;;;;;;3.70;3.23;;;;;;;16.86;100.00;101013.44;5052675;28;20203;-76
2022/06/29 01:36:09;;;;;;;3.87;3.47;;;;;;;16.87;100.00;101009.00;5055993;28;20226;-74
2022/06/29 01:38:36;;;;;;;3.70;3.30;;;;;;;16.86;100.00;101013.44;5052679;28;20204;-74
2022/06/29 01:41:05;;;;;;;4.83;3.73;;;;;;;16.85;100.00;101017.00;5043311;28;20788;-74
2022/06/29 01:43:31;;;;;;;4.37;3.73;;;;;;;16.85;100.00;101019.66;5052003;28;20203;-74
2022/06/29 01:45:58;;;;;;;4.80;4.00;;;;;;;16.87;100.00;101015.16;5044999;28;20482;-74
2022/06/29 01:48:24;;;;;;;3.77;3.47;;;;;;;16.88;100.00;101019.47;5046525;28;20226;-74
2022/06/29 01:50:51;;;;;;;4.23;3.60;;;;;;;16.91;100.00;101015.88;5054402;28;20202;-74
2022/06/29 01:53:17;;;;;;;4.17;3.77;;;;;;;16.90;100.00;101027.31;5053825;28;20254;-74
2022/06/29 01:55:45;;;;;;;4.27;3.83;;;;;;;16.93;100.00;101024.56;5052187;28;20557;-73
2022/06/29 01:58:12;;;;;;;4.10;3.67;;;;;;;16.95;100.00;101036.72;5045046;28;20199;-74
2022/06/29 02:00:39;;;;;;;5.93;3.97;;;;;;;16.94;100.00;101028.88;5042375;28;20715;-74
2022/06/29 02:03:05;;;;;;;4.50;3.90;;;;;;;16.94;100.00;101034.13;5051935;28;20214;-74
2022/06/29 02:05:32;;;;;;;5.03;3.90;;;;;;;16.93;100.00;101025.41;5052547;28;20199;-74
2022/06/29 02:07:58;;;;;;;4.00;3.53;;;;;;;16.95;100.00;101030.59;5050117;28;20556;-74
2022/06/29 02:10:25;;;;;;;6.03;3.83;;;;;;;16.94;100.00;101032.38;5048936;28;20200;-74
2022/06/29 02:12:51;;;;;;;8.83;3.97;;;;;;;16.93;100.00;101028.03;5049238;28;20222;-74
2022/06/29 02:15:19;;;;;;;5.53;3.83;;;;;;;16.92;100.00;101028.97;5040534;28;20199;-74
2022/06/29 02:17:46;;;;;;;4.27;3.87;;;;;;;16.91;100.00;101031.66;5039980;28;20299;-74
2022/06/29 02:20:12;;;;;;;5.40;4.23;;;;;;;16.91;100.00;101040.41;5046952;28;20200;-74
2022/06/29 02:22:39;;;;;;;5.13;4.40;;;;;;;16.93;100.00;101033.28;5051325;28;20269;-74
2022/06/29 02:25:06;;;;;;;4.63;3.60;;;;;;;16.94;100.00;101031.50;5052158;28;20187;-74
2022/06/29 02:27:33;;;;;;;4.50;3.67;;;;;;;16.94;100.00;101039.41;5044183;28;20661;-74
2022/06/29 02:29:59;;;;;;;4.27;3.60;;;;;;;16.97;100.00;101031.38;5041317;28;20184;-74
2022/06/29 02:35:11;;;;;;;6.97;4.47;;;;;;;16.96;100.00;101024.41;5046869;28;20196;-74
2022/06/29 02:37:37;;;;;;;6.67;3.93;;;;;;;16.93;100.00;101021.91;5047301;28;20238;-74
2022/06/29 02:40:05;;;;;;;5.60;3.93;;;;;;;16.92;100.00;101017.56;5046423;28;20214;-74
2022/06/29 02:42:32;;;;;;;3.93;3.53;;;;;;;16.92;100.00;101014.94;5048925;28;20215;-74
2022/06/29 02:44:59;;;;;;;4.50;3.90;;;;;;;16.91;100.00;101016.72;5048522;28;20200;-74
2022/06/29 02:47:27;;;;;;;5.73;3.60;;;;;;;16.92;100.00;101020.19;5047916;28;20702;-74
2022/06/29 02:49:54;;;;;;;3.97;3.50;;;;;;;16.91;100.00;101019.34;5046999;28;20830;-73
2022/06/29 02:52:20;;;;;;;3.90;3.53;;;;;;;16.97;100.00;101018.19;5036821;28;20223;-74
2022/06/29 02:54:47;;;;;;;4.63;4.13;;;;;;;16.97;100.00;101020.84;5047462;28;20570;-74
2022/06/29 02:57:13;;;;;;;4.90;3.93;;;;;;;16.99;100.00;101016.34;5044475;28;20195;-74
2022/06/29 02:59:39;;;;;;;4.57;4.07;;;;;;;16.99;100.00;101017.22;5034627;28;20207;-74
2022/06/29 03:02:06;;;;;;;4.70;4.20;;;;;;;16.99;100.00;101021.63;5049579;28;20246;-74
2022/06/29 03:04:34;;;;;;;4.97;3.97;;;;;;;17.00;100.00;101013.66;5045651;28;20668;-74
2022/06/29 03:07:00;;;;;;;5.27;4.40;;;;;;;17.03;100.00;101016.16;5038360;28;20195;-73
2022/06/29 03:09:27;;;;;;;6.27;4.00;;;;;;;17.03;100.00;101015.28;5048191;28;20290;-74
2022/06/29 03:11:54;;;;;;;5.63;4.33;;;;;;;17.07;100.00;101022.13;5044996;28;20222;-74
2022/06/29 03:14:20;;;;;;;6.07;4.40;;;;;;;17.09;100.00;101012.34;5046827;28;20206;-74
2022/06/29 03:16:46;;;;;;;5.53;4.03;;;;;;;17.11;100.00;101007.03;5051154;28;20199;-74
2022/06/29 03:19:13;;;;;;;5.30;4.03;;;;;;;17.12;100.00;101012.22;5047809;28;20210;-74
2022/06/29 03:21:41;;;;;;;4.20;3.80;;;;;;;17.13;100.00;101002.53;5041229;28;20219;-74
2022/06/29 03:24:07;;;;;;;4.70;3.90;;;;;;;17.14;100.00;101006.88;5049862;28;20191;-74
2022/06/29 03:26:34;;;;;;;4.60;3.67;;;;;;;17.13;100.00;101002.53;5042442;28;20271;-74
2022/06/29 03:29:00;;;;;;;5.37;4.10;;;;;;;17.14;100.00;101002.47;5046727;28;20202;-74
2022/06/29 03:31:30;;;;;;;5.07;3.80;;;;;;;17.15;100.00;101004.19;5046897;28;20233;-75
2022/06/29 03:33:56;;;;;;;5.37;4.03;;;;;;;17.18;100.00;100997.91;5044294;28;20199;-75
2022/06/29 03:36:23;;;;;;;4.70;4.17;;;;;;;17.25;100.00;100998.47;5045323;28;20601;-75
2022/06/29 03:38:50;;;;;;;5.13;4.13;;;;;;;17.20;100.00;100998.66;5042487;28;20241;-75
2022/06/29 03:41:17;;;;;;;5.30;4.03;;;;;;;17.19;100.00;101002.25;5041295;28;20233;-75
2022/06/29 03:43:43;;;;;;;6.17;4.17;;;;;;;17.26;100.00;101016.00;5042780;28;20652;-75
2022/06/29 03:46:09;;;;;;;4.97;4.03;;;;;;;17.22;100.00;101010.88;5043545;28;20195;-75
2022/06/29 03:48:36;;;;;;;4.30;3.90;;;;;;;17.26;100.00;101016.00;5046335;28;20687;-75
2022/06/29 03:51:02;;;;;;;4.53;4.07;;;;;;;17.28;100.00;101014.13;5050720;28;20192;-75
2022/06/29 03:53:29;;;;;;;5.73;3.93;;;;;;;17.34;100.00;101013.81;5045940;28;20797;-76
2022/06/29 03:55:57;;;;;;;6.43;3.80;;;;;;;17.44;100.00;101019.53;5049507;28;20199;-75
2022/06/29 03:58:23;;;;;;;5.77;4.33;;;;;;;17.44;100.00;101017.72;5040612;28;20652;-76
2022/06/29 04:00:50;;;;;;;6.10;4.40;;;;;;;17.46;100.00;101015.88;5043915;28;20458;-75
2022/06/29 04:03:16;;;;;;;4.10;3.70;;;;;;;17.54;100.00;101024.25;5040877;28;20711;-75
2022/06/29 04:05:43;;;;;;;6.53;3.90;;;;;;;17.59;100.00;101024.06;5044432;28;20204;-75
2022/06/29 04:08:10;;;;;;;5.13;3.90;;;;;;;17.63;100.00;101025.59;5042215;28;20202;-75
2022/06/29 04:10:37;;;;;;;4.47;4.00;;;;;;;17.68;100.00;101028.84;5047125;28;20214;-75
2022/06/29 04:13:05;;;;;;;4.10;3.70;;;;;;;17.74;100.00;101025.91;5046981;28;20736;-75
2022/06/29 04:15:31;;;;;;;6.13;4.00;;;;;;;17.79;100.00;101021.25;5043949;28;20195;-75
2022/06/29 04:17:58;;;;;;;3.83;3.43;;;;;;;17.76;100.00;101015.28;5038878;28;20195;-75
2022/06/29 04:23:09;;;;;;;4.23;3.70;;;;;;;17.75;100.00;101019.72;5051105;28;20708;-75
2022/06/29 04:25:35;;;;;;;4.00;3.60;;;;;;;17.83;100.00;101021.09;5041258;28;20192;-76
2022/06/29 04:28:02;;;;;;;5.17;3.70;;;;;;;17.81;100.00;101021.19;5045144;28;20210;-75
2022/06/29 04:30:29;;;;;;;5.03;3.63;;;;;;;17.83;100.00;101023.75;5041703;28;20546;-75
2022/06/29 04:32:56;;;;;;;5.97;3.73;;;;;;;17.79;100.00;101018.63;5046316;28;20227;-75
2022/06/29 04:35:22;;;;;;;4.87;3.87;;;;;;;17.81;100.00;101010.63;5038415;28;20204;-75
2022/06/29 04:37:49;;;;;;;3.93;3.53;;;;;;;17.81;100.00;101013.28;5036892;28;20195;-76
2022/06/29 04:40:16;;;;;;;3.83;3.33;;;;;;;17.83;100.00;101014.03;5040776;28;20214;-75
2022/06/29 04:42:42;;;;;;;4.27;3.60;;;;;;;17.87;100.00;101023.56;5039341;28;20220;-75
2022/06/29 04:46:19;;;;;;;3.83;3.13;;;;;;;17.87;100.00;101028.84;5043406;28;20203;-75
2022/06/29 04:48:00;;;;;;;4.13;3.40;;;;;;;17.84;100.00;101028.94;5044304;28;20206;-75
2022/06/29 04:50:27;;;;;;;4.27;3.40;;;;;;;17.87;100.00;101022.69;5041770;28;20203;-75
2022/06/29 04:52:54;;;;;;;7.90;3.30;;;;;;;17.89;100.00;101031.41;5042957;28;20219;-76
2022/06/29 04:55:20;;;;;;;4.67;3.70;;;;;;;17.91;100.00;101024.25;5044767;28;20231;-76
2022/06/29 04:57:47;;;;;;;6.20;3.17;;;;;;;17.89;100.00;101029.59;5042916;28;20196;-77
2022/06/29 05:00:14;;;;;;;4.30;3.33;;;;;;;17.90;100.00;101033.09;5046229;28;20199;-76
2022/06/29 05:02:41;;;;;;;3.73;3.07;;;;;;;17.89;100.00;101031.41;5048523;28;20226;-77
2022/06/29 05:05:09;;;;;;;6.37;3.50;;;;;;;17.85;100.00;101022.72;5038458;28;20686;-77
2022/06/29 05:07:36;;;;;;;4.10;3.23;;;;;;;17.86;100.00;101023.63;5045051;28;20665;-77
2022/06/29 05:10:03;;;;;;;3.87;3.37;;;;;;;17.88;100.00;101022.59;5041487;28;20203;-77
2022/06/29 05:12:29;;;;;;;3.50;3.07;;;;;;;17.88;100.00;101027.88;5039261;28;20243;-77
2022/06/29 05:14:55;;;;;;;3.67;3.27;;;;;;;17.87;100.00;101023.56;5042855;28;20203;-76
2022/06/29 05:17:22;;;;;;;8.67;3.47;;;;;;;17.88;100.00;101025.25;5049155;28;20204;-76
2022/06/29 05:19:48;;;;;;;3.57;3.10;;;;;;;17.89;100.00;101023.47;5041880;28;20191;-77
2022/06/29 05:22:16;;;;;;;3.90;3.20;;;;;;;17.91;100.00;101029.53;5043779;28;20226;-76
2022/06/29 05:24:42;;;;;;;5.40;3.80;;;;;;;17.93;100.00;101019.75;5043596;28;20192;-77
2022/06/29 05:27:09;;;;;;;7.97;3.40;;;;;;;17.96;100.00;101024.88;5037393;28;20241;-77
2022/06/29 05:29:35;;;;;;;3.80;2.90;;;;;;;17.98;100.00;101020.38;5044514;28;20555;-77
2022/06/29 05:32:02;;;;;;;5.00;3.10;;;;;;;17.98;100.00;101023.00;5042812;28;20242;-77
2022/06/29 05:34:28;;;;;;;3.30;3.00;;;;;;;18.00;100.00;101023.78;5041119;28;20211;-77
2022/06/29 05:36:55;;;;;;;4.10;3.00;;;;;;;18.05;100.00;101027.03;5050921;28;20655;-77
2022/06/29 05:39:23;;;;;;;4.53;3.40;;;;;;;18.05;100.00;101023.56;5044913;28;20222;-77
2022/06/29 05:41:49;;;;;;;4.17;3.47;;;;;;;18.05;100.00;101019.13;5039060;28;20228;-77
2022/06/29 05:44:16;;;;;;;3.60;3.27;;;;;;;18.05;100.00;101011.22;5043673;28;20203;-77
2022/06/29 05:46:42;;;;;;;4.40;3.20;;;;;;;18.04;100.00;101008.66;5045160;28;20562;-77
2022/06/29 05:49:08;;;;;;;3.20;2.90;;;;;;;18.00;100.00;101013.22;5039182;28;20210;-77
2022/06/29 05:51:35;;;;;;;3.93;3.20;;;;;;;18.03;100.00;101006.94;5040364;28;20215;-77
2022/06/29 05:54:01;;;;;;;5.80;3.40;;;;;;;18.01;100.00;101004.41;5044112;28;20211;-76
2022/06/29 05:56:29;;;;;;;5.37;3.40;;;;;;;17.94;100.00;101013.53;5051774;28;20730;-77
2022/06/29 05:58:55;;;;;;;4.50;3.20;;;;;;;17.91;100.00;101001.34;5047076;28;20203;-77
2022/06/29 06:01:22;;;;;;;4.87;3.50;;;;;;;17.93;100.00;100994.22;5044530;28;20299;-77
2022/06/29 06:03:48;;;;;;;4.47;3.37;;;;;;;17.94;100.00;100998.56;5047839;28;20198;-77
2022/06/29 06:06:15;;;;;;;4.60;3.60;;;;;;;17.89;100.00;100981.28;5047697;28;20573;-77
2022/06/29 06:08:42;;;;;;;5.97;3.80;;;;;;;17.83;100.00;100979.75;5042464;28;20691;-77
2022/06/29 06:11:08;;;;;;;4.03;3.30;;;;;;;17.91;100.00;100976.78;5050192;28;20198;-77
2022/06/29 06:13:36;;;;;;;3.93;3.53;;;;;;;17.93;100.00;100977.53;5050070;28;20196;-77
2022/06/29 06:16:02;;;;;;;5.73;3.40;;;;;;;17.88;100.00;100976.94;5047809;28;20287;-77
2022/06/29 06:18:29;;;;;;;4.87;3.63;;;;;;;17.90;100.00;100981.19;5043297;28;20195;-77
2022/06/29 06:20:55;;;;;;;4.40;3.37;;;;;;;17.97;100.00;100974.66;5042926;28;20566;-77
2022/06/29 06:23:22;;;;;;;4.07;3.60;;;;;;;18.01;100.00;100982.41;5044254;28;20238;-77
2022/06/29 06:25:48;;;;;;;4.63;3.80;;;;;;;18.00;100.00;100984.22;5048141;28;20200;-77
2022/06/29 06:28:15;;;;;;;3.93;3.50;;;;;;;18.04;100.00;100988.38;5049387;28;20329;-76
2022/06/29 06:30:43;;;;;;;4.03;3.63;;;;;;;17.97;100.00;100987.00;5048836;28;20359;-77
2022/06/29 06:33:10;;;;;;;5.97;3.67;;;;;;;17.96;100.00;100990.59;5047256;28;20219;-77
2022/06/29 06:35:37;;;;;;;4.83;3.37;;;;;;;17.94;100.00;100995.94;5044530;28;20200;-77
2022/06/29 06:38:03;;;;;;;4.43;3.57;;;;;;;18.03;100.00;101004.28;5049731;28;20282;-77
2022/06/29 06:43:13;;;;;;;5.60;3.60;;;;;;;18.04;100.00;101006.00;5047265;28;20207;-76
2022/06/29 06:45:42;;;;;;;4.13;3.53;;;;;;;18.02;100.00;101000.81;5048764;28;20647;-77
2022/06/29 06:48:10;;;;;;;4.77;3.30;;;;;;;18.10;100.00;100992.50;5051308;28;20562;-77
2022/06/29 06:50:36;;;;;;;4.90;3.33;;;;;;;18.11;100.00;100999.47;5046891;28;20195;-76
2022/06/29 06:53:02;;;;;;;4.53;3.10;;;;;;;18.04;100.00;101016.56;5050342;28;20221;-77
2022/06/29 06:55:29;;;;;;;2.67;2.47;;;;;;;18.03;100.00;101007.81;5049994;28;20191;-77
2022/06/29 06:57:55;;;;;;;2.90;2.57;;;;;;;18.05;100.00;101010.38;5047342;28;20204;-77
2022/06/29 07:00:22;;;;;;;2.60;2.40;;;;;;;18.00;100.00;101009.75;5048769;28;20201;-77
2022/06/29 07:02:48;;;;;;;4.07;2.70;;;;;;;17.96;100.00;101003.78;5045587;28;20219;-77
2022/06/29 07:05:17;;;;;;;3.27;2.90;;;;;;;17.96;100.00;101004.63;5037217;28;20212;-76
2022/06/29 07:07:44;;;;;;;3.40;2.57;;;;;;;17.91;100.00;100996.09;5046917;28;20196;-77
2022/06/29 07:10:10;;;;;;;3.03;2.67;;;;;;;17.93;100.00;100998.66;5043126;28;20199;-77
2022/06/29 07:12:37;;;;;;;2.70;2.40;;;;;;;17.94;100.00;100998.56;5040115;28;20223;-77
2022/06/29 07:15:04;;;;;;;2.67;2.40;;;;;;;17.95;100.00;101000.25;5046101;28;20205;-77
2022/06/29 07:17:30;;;;;;;3.20;2.67;;;;;;;17.96;100.00;100999.34;5043994;28;20198;-77
2022/06/29 07:19:57;;;;;;;3.27;2.60;;;;;;;17.97;100.00;100997.56;5045547;28;20671;-76
2022/06/29 07:22:25;;;;;;;3.20;2.60;;;;;;;18.05;100.00;101010.38;5044116;28;20796;-78
2022/06/29 07:24:51;;;;;;;3.23;2.90;;;;;;;17.94;100.00;101002.97;5046707;28;20198;-77
2022/06/29 07:27:17;;;;;;;4.67;3.40;;;;;;;17.92;100.00;101008.34;5047576;28;20202;-76
2022/06/29 07:29:44;;;;;;;5.33;3.47;;;;;;;17.93;100.00;101007.41;5048914;28;20195;-77
2022/06/29 07:32:11;;;;;;;4.97;3.63;;;;;;;17.88;100.00;101012.06;5036440;28;20809;-77
2022/06/29 07:34:37;;;;;;;3.93;3.20;;;;;;;17.87;100.00;101005.09;5050606;28;20211;-77
2022/06/29 07:37:04;;;;;;;3.70;3.33;;;;;;;17.88;100.00;101001.50;5043546;28;20207;-77
2022/06/29 07:39:32;;;;;;;3.53;3.10;;;;;;;17.89;100.00;100999.75;5041733;28;20195;-77
2022/06/29 07:41:58;;;;;;;3.90;3.30;;;;;;;17.89;100.00;101003.22;5050303;28;20223;-76
2022/06/29 07:44:25;;;;;;;3.43;3.13;;;;;;;17.89;100.00;100997.13;5040092;28;20200;-77
2022/06/29 07:46:51;;;;;;;4.60;2.90;;;;;;;17.84;100.00;100999.94;5050433;28;20206;-77
2022/06/29 07:49:18;;;;;;;4.73;3.13;;;;;;;17.85;100.00;100998.16;5049068;28;20201;-77
2022/06/29 07:51:45;;;;;;;3.77;3.03;;;;;;;17.85;100.00;100987.59;5044810;28;20222;-77
2022/06/29 07:54:11;;;;;;;3.27;2.80;;;;;;;17.84;100.00;100993.81;5049294;28;20559;-77
2022/06/29 07:56:39;;;;;;;2.97;2.70;;;;;;;17.91;100.00;100992.59;5039977;28;20187;-77
2022/06/29 07:59:05;;;;;;;3.57;3.10;;;;;;;17.92;100.00;100989.88;5040165;28;20191;-77
2022/06/29 08:01:32;;;;;;;5.83;3.03;;;;;;;17.94;100.00;100989.78;5046374;28;20578;-77
2022/06/29 08:03:58;;;;;;;4.40;3.43;;;;;;;17.98;100.00;100994.00;5040948;28;20559;-77
2022/06/29 08:06:25;;;;;;;4.20;3.23;;;;;;;17.95;100.00;100994.16;5045532;28;20206;-77
2022/06/29 08:08:52;;;;;;;3.30;2.90;;;;;;;17.99;100.00;100998.31;5042329;28;20210;-77
2022/06/29 08:11:18;;;;;;;5.90;3.27;;;;;;;18.07;100.00;101000.59;5039574;28;20219;-76
2022/06/29 08:13:46;;;;;;;3.70;3.20;;;;;;;18.08;100.00;101000.50;5048660;28;20195;-77
2022/06/29 08:16:13;;;;;;;4.60;3.37;;;;;;;18.10;100.00;100996.00;5036479;28;20192;-77
2022/06/29 08:18:39;;;;;;;4.60;3.30;;;;;;;18.05;100.00;100998.03;5042962;28;20200;-77
2022/06/29 08:21:06;;;;;;;4.30;2.97;;;;;;;18.03;100.00;101004.28;5036499;28;20254;-76
2022/06/29 08:23:33;;;;;;;3.47;3.17;;;;;;;18.00;100.00;101009.75;5043118;28;20214;-77
2022/06/29 08:26:00;;;;;;;3.47;3.17;;;;;;;18.08;100.00;101008.44;5045902;28;20237;-77
2022/06/29 08:28:27;;;;;;;3.37;3.07;;;;;;;18.18;100.00;101003.50;5045279;28;20206;-77
2022/06/29 08:30:55;;;;;;;3.10;2.80;;;;;;;18.25;100.00;101006.69;5048412;28;20552;-77
2022/06/29 08:33:22;;;;;;;4.00;3.17;;;;;;;18.19;100.00;100999.94;5043929;28;20195;-77
2022/06/29 08:35:49;;;;;;;5.40;3.10;;;;;;;18.15;100.00;101001.91;5042980;28;20210;-77
2022/06/29 08:38:16;;;;;;;3.33;3.03;;;;;;;18.12;100.00;100996.78;5044767;28;20233;-77
2022/06/29 08:40:45;;;;;;;4.43;3.27;;;;;;;18.19;100.00;101007.88;5042630;28;20550;-77
2022/06/29 08:43:12;;;;;;;3.70;3.00;;;;;;;18.22;100.00;101018.25;5044148;28;20280;-77
2022/06/29 08:45:42;;;;;;;3.77;3.20;;;;;;;18.24;100.00;101015.53;5039857;28;20196;-77
2022/06/29 08:48:10;;;;;;;3.43;3.10;;;;;;;18.22;100.00;101020.03;5046169;28;20203;-77
2022/06/29 08:50:38;;;;;;;7.97;3.40;;;;;;;18.26;100.00;101022.44;5037949;28;20852;-77
2022/06/29 08:53:07;;;;;;;4.47;3.10;;;;;;;18.29;100.00;101017.00;5042960;28;20243;-77
2022/06/29 08:55:35;;;;;;;4.07;3.20;;;;;;;18.35;100.00;101021.97;5031142;28;20602;-76
2022/06/29 08:58:02;;;;;;;3.37;2.70;;;;;;;18.43;100.00;101020.69;5044464;28;20196;-76
2022/06/29 09:00:29;;;;;;;3.77;3.00;;;;;;;18.46;100.00;101016.09;5040866;28;20208;-77
2022/06/29 09:02:56;;;;;;;3.20;2.90;;;;;;;18.47;100.00;101014.34;5041223;28;20676;-77
2022/06/29 09:05:23;;;;;;;3.00;2.33;;;;;;;18.45;100.00;101021.47;5042227;28;20564;-77
2022/06/29 09:07:50;;;;;;;2.47;2.27;;;;;;;18.46;100.00;101026.66;5045547;28;20192;-77
2022/06/29 09:10:19;;;;;;;3.03;2.60;;;;;;;18.46;100.00;101016.09;5049062;28;20199;-77
2022/06/29 09:12:49;;;;;;;3.20;2.10;;;;;;;18.54;100.00;101015.72;5043538;28;20581;-77
2022/06/29 09:15:16;;;;;;;2.70;2.50;;;;;;;18.57;100.00;101027.88;5039618;28;20653;-76
2022/06/29 09:17:43;;;;;;;4.60;2.40;;;;;;;18.58;100.00;101026.97;5046184;28;20195;-76
2022/06/29 09:20:13;;;;;;;3.10;2.37;;;;;;;18.46;100.00;101023.19;5038270;28;20209;-77
2022/06/29 09:22:51;;;;;;;2.77;2.43;;;;;;;18.47;100.00;101020.47;5043634;28;20239;-77
2022/06/29 09:25:25;;;;;;;2.40;2.20;;;;;;;18.43;100.00;101018.06;5042425;28;20201;-77
2022/06/29 09:27:55;;;;;;;2.77;2.10;;;;;;;18.49;100.00;101018.59;5044002;28;20195;-77
2022/06/29 09:30:28;;;;;;;2.80;2.43;;;;;;;18.61;100.00;101014.44;5052134;28;20191;-77
2022/06/29 09:33:00;;;;;;;2.67;2.10;;;;;;;18.63;100.00;101017.00;5062988;23;20250;-72
2022/06/29 09:35:26;;;;;;;2.37;2.17;;;;;;;18.58;100.00;101014.59;5048614;28;20207;-72
2022/06/29 09:37:54;;;;;;;2.20;2.00;;;;;;;18.66;100.00;101006.25;5043527;28;20666;-72
2022/06/29 09:40:20;;;;;;;2.83;2.10;;;;;;;18.64;99.99;101016.91;5051721;28;20462;-72
2022/06/29 09:42:47;;;;;;;1.80;1.70;;;;;;;18.62;100.00;101010.84;5040051;28;20235;-72
2022/06/29 09:45:13;;;;;;;2.37;1.70;;;;;;;18.43;96.06;101015.41;5050879;28;20195;-71
2022/06/29 09:47:41;;;;;;;1.30;1.20;;;;;;;18.47;94.80;101009.06;5044942;28;20206;-71
2022/06/29 09:50:10;;;;;;;2.33;1.40;;;;;;;18.42;94.75;101017.22;5049830;28;20234;-71
2022/06/29 09:52:39;;;;;;;1.93;1.30;;;;;;;18.39;96.04;101022.66;5045008;28;20224;-71
2022/06/29 09:55:10;;;;;;;1.40;1.30;;;;;;;18.24;97.42;101016.41;5047843;28;20192;-71
2022/06/29 09:57:38;;;;;;;1.43;1.30;;;;;;;18.26;97.79;101016.31;5044387;28;20203;-71
2022/06/29 10:02:51;;;;;;;2.33;1.23;;;;;;;18.08;98.23;101020.75;5039692;28;20223;-71
2022/06/29 10:05:20;;;;;;;1.40;1.20;;;;;;;18.02;94.95;101023.72;5047284;28;20572;-71
2022/06/29 10:07:48;;;;;;;1.30;1.20;;;;;;;17.87;95.43;101025.31;5045362;28;20207;-71
2022/06/29 10:10:18;;;;;;;1.17;0.93;;;;;;;17.71;96.07;101012.03;5040140;28;20200;-71
2022/06/29 10:15:53;;;;;;;1.17;1.00;;;;;;;17.80;99.80;101008.94;5039695;28;20188;-70
2022/06/29 10:18:34;;;;;;;1.23;1.03;;;;;;;17.77;100.00;101001.19;5046588;28;20541;-71
2022/06/29 10:21:01;;;;;;;1.40;1.30;;;;;;;17.90;100.00;100994.38;5039524;28;20641;-72
2022/06/29 10:23:44;;;;;;;1.27;1.00;;;;;;;18.04;100.00;100991.03;5044251;28;20226;-71
2022/06/29 10:26:44;;;;;;;1.17;1.07;;;;;;;18.07;100.00;100987.38;5044290;28;20442;-71
2022/06/29 10:29:31;;;;;;;1.40;1.30;;;;;;;18.05;100.00;100992.75;5045045;28;20206;-71
2022/06/29 10:32:17;;;;;;;1.40;1.30;;;;;;;17.96;100.00;100982.69;5038521;28;20219;-71
2022/06/29 10:37:30;;;;;;;1.20;1.10;;;;;;;18.18;100.00;100992.94;5047698;28;20206;-71
2022/06/29 10:40:00;;;;;;;1.67;1.10;;;;;;;18.29;100.00;100987.09;5039357;28;20196;-71
2022/06/29 10:45:32;;;;;;;1.23;1.13;;;;;;;18.19;100.00;100986.75;5047636;28;20280;-71
2022/06/29 10:48:21;;;;;;;1.30;1.20;;;;;;;18.33;100.00;100996.59;5049562;28;20249;-71
2022/06/29 10:50:48;;;;;;;2.90;1.53;;;;;;;18.45;100.00;100989.78;5041454;28;20218;-71
2022/06/29 10:53:17;;;;;;;1.97;1.50;;;;;;;18.48;100.00;100985.19;5043957;28;20215;-71
2022/06/29 10:55:46;;;;;;;2.30;1.50;;;;;;;18.42;100.00;100980.25;5042731;28;20192;-71
2022/06/29 10:58:14;;;;;;;4.13;1.30;;;;;;;18.54;100.00;100981.41;5043203;28;20706;-71
2022/06/29 11:00:42;;;;;;;1.50;1.40;;;;;;;18.74;100.00;100978.50;5039608;28;20204;-71
2022/06/29 11:03:11;;;;;;;2.90;1.30;;;;;;;18.90;98.87;100969.78;5038358;28;20215;-71
2022/06/29 11:12:01;;;;;;;2.67;1.60;;;;;;;19.04;99.15;100964.56;5046561;28;20199;-71
2022/06/29 11:14:02;;;;;;;2.17;1.70;;;;;;;19.39;96.53;100959.06;5038927;28;20191;-72
2022/06/29 11:16:31;;;;;;;1.73;1.33;;;;;;;19.61;95.74;100953.38;5042144;28;20203;-71
2022/06/29 11:18:58;;;;;;;1.50;1.40;;;;;;;19.92;94.88;100958.66;5040379;28;20202;-72
2022/06/29 11:21:25;;;;;;;3.10;1.70;;;;;;;20.01;93.73;100966.03;5043755;28;20204;-71
2022/06/29 11:24:03;;;;;;;1.70;1.60;;;;;;;20.01;92.71;100966.88;5048185;28;20334;-71
2022/06/29 11:26:31;;;;;;;1.67;1.57;;;;;;;19.76;94.08;100978.09;5040290;28;20663;-72
2022/06/29 11:28:58;;;;;;;1.70;1.60;;;;;;;19.75;94.24;100979.06;5048836;28;20192;-71
2022/06/29 11:31:26;;;;;;;2.40;1.80;;;;;;;19.75;93.98;100975.53;5045617;28;20213;-71
2022/06/29 11:33:54;;;;;;;1.80;1.50;;;;;;;19.83;94.79;100968.84;5041289;28;20226;-71
2022/06/29 11:36:23;;;;;;;4.57;1.60;;;;;;;20.02;93.33;100973.91;5043405;28;20263;-71
2022/06/29 11:38:52;;;;;;;1.97;1.60;;;;;;;19.79;93.55;100970.00;5045117;28;20211;-71
2022/06/29 11:41:20;;;;;;;1.60;1.50;;;;;;;19.87;94.90;100966.88;5041172;28;20223;-72
2022/06/29 11:43:46;;;;;;;2.20;1.53;;;;;;;19.77;94.30;100979.81;5038334;28;20207;-71